createdAt,value
2019-05-23T00:01:54.520Z,12.80
2019-05-23T00:04:56.368Z,12.79
2019-05-23T00:07:51.161Z,12.83
2019-05-23T00:11:06.264Z,12.77
2019-05-23T00:13:50.275Z,12.76
2019-05-23T00:16:28.981Z,12.72
2019-05-23T00:19:04.397Z,12.71
2019-05-23T00:21:39.840Z,12.73
2019-05-23T00:24:17.407Z,12.73
2019-05-23T00:26:52.946Z,12.72
2019-05-23T00:29:29.088Z,12.74
2019-05-23T00:32:18.230Z,12.69
2019-05-23T00:34:54.829Z,12.67
2019-05-23T00:37:30.431Z,12.63
2019-05-23T00:40:11.324Z,12.62
2019-05-23T00:42:46.796Z,12.58
2019-05-23T00:45:22.874Z,12.58
2019-05-23T00:47:58.203Z,12.59
2019-05-23T00:50:33.314Z,12.57
2019-05-23T00:53:09.330Z,12.55
2019-05-23T00:55:47.133Z,12.57
2019-05-23T00:58:23.525Z,12.54
2019-05-23T01:00:59.919Z,12.52
2019-05-23T01:03:35.821Z,12.52
2019-05-23T01:06:14.638Z,12.50
2019-05-23T01:08:50.443Z,12.50
2019-05-23T01:11:27.193Z,12.46
2019-05-23T01:14:02.632Z,12.51
2019-05-23T01:16:39.989Z,12.48
2019-05-23T01:19:16.351Z,12.45
2019-05-23T01:21:56.523Z,12.47
2019-05-23T01:24:41.025Z,12.48
2019-05-23T01:27:18.861Z,12.46
2019-05-23T01:29:56.139Z,12.42
2019-05-23T01:32:36.540Z,12.40
2019-05-23T01:35:13.698Z,12.40
2019-05-23T01:37:51.555Z,12.42
2019-05-23T01:40:29.131Z,12.35
2019-05-23T01:43:04.709Z,12.30
2019-05-23T01:45:41.130Z,12.28
2019-05-23T01:48:17.325Z,12.29
2019-05-23T01:50:52.912Z,12.27
2019-05-23T01:53:29.783Z,12.29
2019-05-23T01:56:06.127Z,12.24
2019-05-23T01:58:41.943Z,12.21
2019-05-23T02:01:17.347Z,12.19
2019-05-23T02:03:52.956Z,12.18
2019-05-23T02:06:29.220Z,12.17
2019-05-23T02:09:09.558Z,12.14
2019-05-23T02:11:45.498Z,12.12
2019-05-23T02:14:21.492Z,12.13
2019-05-23T02:16:58.462Z,12.11
2019-05-23T02:19:34.812Z,12.06
2019-05-23T02:22:10.594Z,12.01
2019-05-23T02:24:47.069Z,11.96
2019-05-23T02:27:23.429Z,11.90
2019-05-23T02:30:00.555Z,11.85
2019-05-23T02:32:35.955Z,11.79
2019-05-23T02:35:12.016Z,11.74
2019-05-23T02:37:52.955Z,11.72
2019-05-23T02:40:36.005Z,11.67
2019-05-23T02:43:28.980Z,11.60
2019-05-23T02:46:16.733Z,11.55
2019-05-23T02:48:53.712Z,11.52
2019-05-23T02:51:34.104Z,11.50
2019-05-23T02:54:12.287Z,11.50
2019-05-23T02:56:47.980Z,11.46
2019-05-23T02:59:42.088Z,11.46
2019-05-23T03:02:40.110Z,11.38
2019-05-23T03:05:18.124Z,11.38
2019-05-23T03:07:53.535Z,11.43
2019-05-23T03:10:33.447Z,11.40
2019-05-23T03:13:11.775Z,11.39
2019-05-23T03:15:48.232Z,11.36
2019-05-23T03:18:24.671Z,11.35
2019-05-23T03:21:01.369Z,11.33
2019-05-23T03:23:36.507Z,11.31
2019-05-23T03:26:34.957Z,11.30
2019-05-23T03:29:11.457Z,11.29
2019-05-23T03:31:52.373Z,11.32
2019-05-23T03:34:29.298Z,11.31
2019-05-23T03:37:06.362Z,11.30
2019-05-23T03:39:41.787Z,11.27
2019-05-23T03:42:17.119Z,11.22
2019-05-23T03:44:53.897Z,11.18
2019-05-23T03:47:30.868Z,11.15
2019-05-23T03:50:07.522Z,11.11
2019-05-23T03:52:44.887Z,11.10
2019-05-23T03:55:21.890Z,11.05
2019-05-23T03:57:58.006Z,11.03
2019-05-23T04:00:37.420Z,10.99
2019-05-23T04:03:14.975Z,10.94
2019-05-23T04:05:51.445Z,10.93
2019-05-23T04:08:29.123Z,10.90
2019-05-23T04:11:04.208Z,10.85
2019-05-23T04:13:39.738Z,10.80
2019-05-23T04:16:15.162Z,10.79
2019-05-23T04:18:51.643Z,10.73
2019-05-23T04:21:28.218Z,10.69
2019-05-23T04:24:03.835Z,10.60
2019-05-23T04:26:40.353Z,10.58
2019-05-23T04:29:16.694Z,10.53
2019-05-23T04:32:06.903Z,10.49
2019-05-23T04:34:29.939Z,10.45
2019-05-23T04:37:05.994Z,10.43
2019-05-23T04:39:42.499Z,10.39
2019-05-23T04:42:20.183Z,10.40
2019-05-23T04:44:55.587Z,10.41
2019-05-23T04:47:31.467Z,10.41
2019-05-23T04:50:08.876Z,10.39
2019-05-23T04:52:45.384Z,10.39
2019-05-23T04:55:24.810Z,10.42
2019-05-23T04:58:04.153Z,10.43
2019-05-23T05:00:38.137Z,10.43
2019-05-23T05:03:17.825Z,10.43
2019-05-23T05:05:51.358Z,10.43
2019-05-23T05:08:26.403Z,10.50
2019-05-23T05:11:01.731Z,10.60
2019-05-23T05:13:37.547Z,10.72
2019-05-23T05:16:15.968Z,10.83
2019-05-23T05:18:55.253Z,10.94
2019-05-23T05:21:32.604Z,11.23
2019-05-23T05:24:07.924Z,11.23
2019-05-23T05:26:44.166Z,11.34
2019-05-23T05:29:22.120Z,11.41
2019-05-23T05:31:57.546Z,11.50
2019-05-23T05:34:32.663Z,11.56
2019-05-23T05:37:07.987Z,11.63
2019-05-23T05:39:43.914Z,11.73
2019-05-23T05:42:20.415Z,11.90
2019-05-23T05:44:59.337Z,11.95
2019-05-23T05:47:35.827Z,12.03
2019-05-23T05:50:13.079Z,12.12
2019-05-23T05:52:49.646Z,12.19
2019-05-23T05:55:24.947Z,12.29
2019-05-23T05:58:02.052Z,12.36
2019-05-23T06:00:39.857Z,12.46
2019-05-23T06:03:14.993Z,12.48
2019-05-23T06:06:09.487Z,12.56
2019-05-23T06:08:46.512Z,12.63
2019-05-23T06:11:21.725Z,12.68
2019-05-23T06:13:58.196Z,12.79
2019-05-23T06:16:36.182Z,12.91
2019-05-23T06:19:11.726Z,13.04
2019-05-23T06:21:48.577Z,13.18
2019-05-23T06:24:42.998Z,13.24
2019-05-23T06:27:09.859Z,13.40
2019-05-23T06:29:50.512Z,13.58
2019-05-23T06:32:38.080Z,13.60
2019-05-23T06:35:16.087Z,13.75
2019-05-23T06:37:55.812Z,13.80
2019-05-23T06:40:33.848Z,13.87
2019-05-23T06:43:12.797Z,13.93
2019-05-23T06:45:49.324Z,14.13
2019-05-23T06:48:45.545Z,14.10
2019-05-23T06:51:23.157Z,14.22
2019-05-23T06:54:12.641Z,14.30
2019-05-23T06:56:55.541Z,14.28
2019-05-23T06:59:45.015Z,14.33
2019-05-23T07:02:20.559Z,14.55
2019-05-23T07:05:00.372Z,14.61
2019-05-23T07:07:37.804Z,14.81
2019-05-23T07:10:13.407Z,14.90
2019-05-23T07:12:48.772Z,14.94
2019-05-23T07:15:26.551Z,15.09
2019-05-23T07:18:10.249Z,15.17
2019-05-23T07:20:46.975Z,15.30
2019-05-23T07:23:41.062Z,15.50
2019-05-23T07:26:35.790Z,15.55
2019-05-23T07:29:14.320Z,15.63
2019-05-23T07:32:00.987Z,15.85
2019-05-23T07:35:08.277Z,16.12
2019-05-23T07:38:05.529Z,16.43
2019-05-23T07:40:46.643Z,17.03
2019-05-23T07:43:30.441Z,18.24
2019-05-23T07:49:08.794Z,19.95
2019-05-23T07:51:46.370Z,20.62
2019-05-23T07:54:26.247Z,21.41
2019-05-23T07:57:09.017Z,21.12
2019-05-23T07:59:52.775Z,20.51
2019-05-23T08:09:11.274Z,23.12
2019-05-23T08:14:59.008Z,22.13
2019-05-23T08:18:07.966Z,23.04
2019-05-23T08:36:35.828Z,24.46
2019-05-23T08:39:16.707Z,23.53
2019-05-23T08:42:19.360Z,23.85
2019-05-23T08:45:20.746Z,24.16
2019-05-23T08:48:15.736Z,24.80
2019-05-23T09:10:52.014Z,25.59
2019-05-23T09:27:15.324Z,25.88
2019-05-23T09:29:52.475Z,25.92
2019-05-23T09:35:39.647Z,25.55
2019-05-23T09:38:26.554Z,25.98
2019-05-23T09:48:06.517Z,26.10
2019-05-23T09:50:41.881Z,26.54
2019-05-23T09:59:47.155Z,26.81
2019-05-23T10:22:23.523Z,28.01
2019-05-23T10:25:38.857Z,27.88
2019-05-23T10:28:15.669Z,28.45
2019-05-23T10:53:33.095Z,27.69
2019-05-23T10:56:26.867Z,27.12
2019-05-23T11:02:45.456Z,27.73
2019-05-23T11:15:07.830Z,27.10
2019-05-23T11:17:53.974Z,26.47
2019-05-23T11:20:36.197Z,25.83
2019-05-23T11:23:14.696Z,24.93
2019-05-23T11:25:54.118Z,25.03
2019-05-23T11:31:37.314Z,25.36
2019-05-23T11:34:19.955Z,25.32
2019-05-23T11:37:01.043Z,25.32
2019-05-23T11:39:41.933Z,25.89
2019-05-23T11:42:18.506Z,25.99
2019-05-23T11:45:01.347Z,25.96
2019-05-23T11:47:36.633Z,26.37
2019-05-23T11:50:15.049Z,26.37
2019-05-23T11:52:56.310Z,26.34
2019-05-23T11:55:32.787Z,27.00
2019-05-23T11:58:10.160Z,26.74
2019-05-23T12:00:55.642Z,26.65
2019-05-23T12:03:31.568Z,27.37
2019-05-23T12:06:20.390Z,27.54
2019-05-23T12:09:03.078Z,27.83
2019-05-23T12:11:42.717Z,27.92
2019-05-23T12:14:22.348Z,27.72
2019-05-23T12:17:02.720Z,26.64
2019-05-23T12:19:39.094Z,25.92
2019-05-23T12:22:21.226Z,25.92
2019-05-23T12:25:20.791Z,26.11
2019-05-23T12:27:55.330Z,26.22
2019-05-23T12:30:32.296Z,26.17
2019-05-23T12:33:10.371Z,25.60
2019-05-23T12:38:50.456Z,25.12
2019-05-23T12:41:29.879Z,25.56
2019-05-23T12:44:11.597Z,25.61
2019-05-23T12:46:49.668Z,25.83
2019-05-23T12:49:35.025Z,25.89
2019-05-23T12:52:20.905Z,26.02
2019-05-23T12:55:13.463Z,26.67
2019-05-23T12:57:51.659Z,27.51
2019-05-23T13:00:42.115Z,27.58
2019-05-23T13:03:28.957Z,28.23
2019-05-23T13:18:27.710Z,29.97
2019-05-23T13:34:02.994Z,27.65
2019-05-23T13:36:56.472Z,27.60
2019-05-23T13:39:32.045Z,27.69
2019-05-23T13:48:48.994Z,27.21
2019-05-23T13:51:49.249Z,27.78
2019-05-23T14:10:32.167Z,27.86
2019-05-23T14:13:10.744Z,27.35
2019-05-23T14:56:21.868Z,30.12
2019-05-23T15:15:33.549Z,27.37
2019-05-23T15:18:24.048Z,25.97
2019-05-23T15:27:32.833Z,25.54
2019-05-23T15:30:29.829Z,26.38
2019-05-23T15:33:18.217Z,25.22
2019-05-23T15:39:09.924Z,23.90
2019-05-23T15:42:05.814Z,23.13
2019-05-23T15:55:00.211Z,21.84
2019-05-23T15:57:51.987Z,22.54
2019-05-23T16:00:38.795Z,23.57
2019-05-23T16:04:07.835Z,24.55
2019-05-23T16:06:47.075Z,25.01
2019-05-23T16:09:50.277Z,26.00
2019-05-23T16:12:30.589Z,26.16
2019-05-23T16:15:18.468Z,25.39
2019-05-23T16:18:23.418Z,24.28
2019-05-23T16:24:21.131Z,23.46
2019-05-23T16:27:15.444Z,22.82
2019-05-23T16:29:56.661Z,22.42
2019-05-23T16:32:37.257Z,22.00
2019-05-23T16:35:12.967Z,21.60
2019-05-23T16:38:04.591Z,21.65
2019-05-23T16:41:02.062Z,22.08
2019-05-23T16:43:35.091Z,22.34
2019-05-23T16:46:17.185Z,22.16
2019-05-23T16:48:55.181Z,22.00
2019-05-23T16:51:35.831Z,22.08
2019-05-23T16:54:19.022Z,22.64
2019-05-23T16:57:05.945Z,22.58
2019-05-23T16:59:52.291Z,22.18
2019-05-23T17:02:39.726Z,21.67
2019-05-23T17:05:34.053Z,21.27
2019-05-23T17:08:23.637Z,21.03
2019-05-23T17:11:04.437Z,20.94
2019-05-23T17:13:50.890Z,20.84
2019-05-23T17:17:05.158Z,20.89
2019-05-23T17:19:40.094Z,20.91
2019-05-23T17:22:40.537Z,20.83
2019-05-23T17:25:43.473Z,20.67
2019-05-23T17:28:24.574Z,20.51
2019-05-23T17:31:03.732Z,20.41
2019-05-23T17:33:39.470Z,20.29
2019-05-23T17:36:14.584Z,20.14
2019-05-23T17:38:56.769Z,20.01
2019-05-23T17:41:35.150Z,19.89
2019-05-23T17:44:12.461Z,19.81
2019-05-23T17:46:50.928Z,19.73
2019-05-23T17:49:28.997Z,19.55
2019-05-23T17:52:14.925Z,19.52
2019-05-23T17:57:52.255Z,19.38
2019-05-23T18:00:44.596Z,19.31
2019-05-23T18:03:26.911Z,19.27
2019-05-23T18:06:05.066Z,19.27
2019-05-23T18:08:43.093Z,19.24
2019-05-23T18:11:18.657Z,19.12
2019-05-23T18:13:54.876Z,19.02
2019-05-23T18:16:31.936Z,18.98
2019-05-23T18:19:15.128Z,18.93
2019-05-23T18:22:04.830Z,18.86
2019-05-23T18:24:43.592Z,18.76
2019-05-23T18:27:24.636Z,18.73
2019-05-23T18:30:06.746Z,18.68
2019-05-23T18:32:43.723Z,18.60
2019-05-23T18:35:20.711Z,18.51
2019-05-23T18:37:55.724Z,18.44
2019-05-23T18:40:33.751Z,18.34
2019-05-23T18:43:15.964Z,18.26
2019-05-23T18:45:56.776Z,18.21
2019-05-23T18:48:41.545Z,18.17
2019-05-23T18:51:23.999Z,18.10
2019-05-23T18:54:07.753Z,18.07
2019-05-23T18:56:45.044Z,17.99
2019-05-23T18:59:22.987Z,17.97
2019-05-23T19:02:04.399Z,18.02
2019-05-23T19:04:51.883Z,17.87
2019-05-23T19:07:39.996Z,17.86
2019-05-23T19:10:16.899Z,17.80
2019-05-23T19:12:58.526Z,17.74
2019-05-23T19:15:57.343Z,17.78
2019-05-23T19:18:46.715Z,17.78
2019-05-23T19:21:31.633Z,17.76
2019-05-23T19:24:22.301Z,17.67
2019-05-23T19:27:04.562Z,17.57
2019-05-23T19:29:46.010Z,17.55
2019-05-23T19:32:46.802Z,17.45
2019-05-23T19:35:27.566Z,17.44
2019-05-23T19:38:18.006Z,17.47
2019-05-23T19:40:59.134Z,17.51
2019-05-23T19:43:39.135Z,17.46
2019-05-23T19:49:26.993Z,17.27
2019-05-23T19:52:04.247Z,17.14
2019-05-23T19:54:44.081Z,17.03
2019-05-23T19:57:24.226Z,16.94
2019-05-23T20:00:17.751Z,16.85
2019-05-23T20:06:26.657Z,16.68
2019-05-23T20:09:09.331Z,16.64
2019-05-23T20:11:54.339Z,16.58
2019-05-23T20:14:35.409Z,16.53
2019-05-23T20:17:20.460Z,16.51
2019-05-23T20:19:59.071Z,16.44
2019-05-23T20:22:41.199Z,16.34
2019-05-23T20:25:18.627Z,16.33
2019-05-23T20:27:55.268Z,16.27
2019-05-23T20:30:45.531Z,16.22
2019-05-23T20:33:26.498Z,16.13
2019-05-23T20:36:11.919Z,16.07
2019-05-23T20:38:46.143Z,15.99
2019-05-23T20:41:24.562Z,15.90
2019-05-23T20:43:59.993Z,15.88
2019-05-23T20:46:36.096Z,15.82
2019-05-23T20:49:14.162Z,15.75
2019-05-23T20:51:53.392Z,15.70
2019-05-23T20:54:33.365Z,15.69
2019-05-23T20:57:08.410Z,15.61
2019-05-23T20:59:46.358Z,15.57
2019-05-23T21:02:20.923Z,15.53
2019-05-23T21:04:56.352Z,15.47
2019-05-23T21:07:34.411Z,15.39
2019-05-23T21:10:14.171Z,15.29
2019-05-23T21:12:49.719Z,15.25
2019-05-23T21:15:25.395Z,15.19
2019-05-23T21:18:02.502Z,15.18
2019-05-23T21:20:38.661Z,15.15
2019-05-23T21:23:13.897Z,15.20
2019-05-23T21:25:54.094Z,15.17
2019-05-23T21:28:32.725Z,15.17
2019-05-23T21:31:29.607Z,15.20
2019-05-23T21:34:25.125Z,15.25
2019-05-23T21:37:01.165Z,15.30
2019-05-23T21:39:42.917Z,15.32
2019-05-23T21:42:20.604Z,15.34
2019-05-23T21:45:14.198Z,15.28
2019-05-23T21:47:54.605Z,15.24
2019-05-23T21:50:43.210Z,15.19
2019-05-23T21:53:21.172Z,15.13
2019-05-23T21:55:57.682Z,15.16
2019-05-23T21:58:32.864Z,15.11
2019-05-23T22:01:18.290Z,15.15
2019-05-23T22:04:07.800Z,15.20
2019-05-23T22:06:47.274Z,15.21
2019-05-23T22:09:30.291Z,15.18
2019-05-23T22:12:31.688Z,15.14
2019-05-23T22:18:40.626Z,15.13
2019-05-23T22:21:21.513Z,15.07
2019-05-23T22:24:04.378Z,14.98
2019-05-23T22:26:55.870Z,14.98
2019-05-23T22:29:45.886Z,14.96
2019-05-23T22:32:28.166Z,14.95
2019-05-23T22:35:09.311Z,14.92
2019-05-23T22:37:53.728Z,14.86
2019-05-23T22:40:39.049Z,14.79
2019-05-23T22:43:31.465Z,14.79
2019-05-23T22:46:14.911Z,14.71
2019-05-23T22:48:55.598Z,14.62
2019-05-23T22:51:46.285Z,14.58
2019-05-23T22:54:49.670Z,14.46
2019-05-23T22:57:40.808Z,14.36
2019-05-23T23:00:41.549Z,14.33
2019-05-23T23:03:33.283Z,14.33
2019-05-23T23:06:16.381Z,14.26
2019-05-23T23:09:02.599Z,14.31
2019-05-23T23:11:48.784Z,14.41
2019-05-23T23:14:28.721Z,14.46
2019-05-23T23:17:07.130Z,14.42
2019-05-23T23:19:56.964Z,14.35
2019-05-23T23:22:34.288Z,14.37
2019-05-23T23:25:12.987Z,14.38
2019-05-23T23:27:57.807Z,14.37
2019-05-23T23:30:54.847Z,14.32
2019-05-23T23:33:50.632Z,14.36
2019-05-23T23:36:32.286Z,14.38
2019-05-23T23:39:21.113Z,14.36
2019-05-23T23:42:02.262Z,14.33
2019-05-23T23:44:47.380Z,14.28
2019-05-23T23:47:46.276Z,14.22
2019-05-23T23:50:59.562Z,14.15
2019-05-23T23:53:58.009Z,14.22
2019-05-23T23:56:53.294Z,14.21
2019-05-23T23:59:33.222Z,14.12
